Update: 26-Nov-2020 03:42Z
16°C
WEATHER FORECAST DUBAI WORLD CENTRAL
 
Thursday, November 26, 2020 (03:43 UTC)
Al Maktoum International Airport
Last Updated: 26-Nov-2020 (03:42Z)
Wind Dir/Speed: ENE at 06 kt
Temperature: 15.7°C
Rel. Humidity: 80 %
Pressure: 1019.5 hPa
Visibility: 10000 m
  • METAR OMDW 260330Z 09008KT CAVOK 15/12 Q1019 NOSIG
DWC AIRPORT 5 DAY OUTLOOK:

DWC AIRPORT WEATHER FORECAST FOR 30 HOUR:
DWC TAF:
TAF OMDW 252300Z 2600/2706 08008KT 8000 NSC BECMG 2611/2613 35012KT BECMG 2614/2616 11008KT=
VALID FROM:
2020-11-26 00:00Z
VALID TILL:
2020-11-27 06:00Z
SURFACE WIND:
E'LY 08KT

BECOMING N'LY 12KT FROM 1100Z-1300Z TODAY

BECOMING ESE'LY 08KT FROM 1400Z-1600Z TODAY.
VISIBILITY:
07-10 KM.
WEATHER:
FINE.
CLOUD:
NIL SIGNIFICANT.
TEMPERATURE:
MIN TEMPERATURE 15°C AROUND 0300Z TODAY

MAX TEMPERATURE 29°C AROUND 1100Z TODAY

MIN TEMPERATURE 16°C AROUND 0300Z FRIDAY. 

HUMIDITY:
MAX HUMIDITY 85% AROUND 0300Z TODAY

MIN HUMIDITY 30% AROUND 1100Z TODAY

MAX HUMIDITY 75% AROUND 0300Z FRIDAY. 


WIND SHEAR:
NIL SIGNIFICANT.
TEMPERATURE INVERSION:
NIL SIGNIFICANT.
COMMENTS:
NIL.